Time;durP1;ratioP1;P1;durP2;ratioP2;P2;SDS_P1;SDS_P2;PMS_P1;PMS_P2;Temp;Humidity;BMP_temperature;BMP_pressure;BME280_temperature;BME280_humidity;BME280_pressure;Samples;Min_cycle;Max_cycle;Signal;HPM_P1;HPM_P2
2021/06/04 00:01:54;;;;;;;3.65;3.25;;;19.10;99.90;;;;;;5033392;28;20025;-65
2021/06/04 00:04:20;;;;;;;5.40;3.42;;;19.20;99.90;;;;;;5050740;28;20051;-66
2021/06/04 00:06:45;;;;;;;3.97;2.97;;;19.20;99.90;;;;;;5051056;28;20032;-65
2021/06/04 00:09:12;;;;;;;3.85;3.42;;;19.20;99.90;;;;;;5033372;28;20040;-66
2021/06/04 00:11:48;;;;;;;3.75;3.05;;;19.20;99.90;;;;;;5050307;28;20069;-65
2021/06/04 00:14:34;;;;;;;4.90;3.15;;;19.20;99.90;;;;;;5051316;28;20510;-65
2021/06/04 00:17:05;;;;;;;4.07;2.83;;;19.20;99.90;;;;;;5033288;28;20135;-65
2021/06/04 00:19:33;;;;;;;4.22;3.35;;;19.30;99.90;;;;;;5050592;28;20029;-65
2021/06/04 00:22:04;;;;;;;5.53;3.33;;;19.30;99.90;;;;;;5050684;28;20033;-65
2021/06/04 00:24:32;;;;;;;3.22;2.95;;;19.20;99.90;;;;;;5050496;28;20104;-65
2021/06/04 00:26:57;;;;;;;2.85;2.65;;;19.30;99.90;;;;;;5051301;28;20439;-64
2021/06/04 00:29:23;;;;;;;6.10;3.90;;;19.30;99.90;;;;;;5032351;28;20040;-65
2021/06/04 00:31:51;;;;;;;6.47;3.58;;;19.30;99.90;;;;;;5051072;28;20028;-65
2021/06/04 00:34:17;;;;;;;3.05;2.75;;;19.30;99.90;;;;;;5050727;28;20043;-65
2021/06/04 00:36:44;;;;;;;4.25;3.00;;;19.30;99.90;;;;;;5032045;28;20029;-64
2021/06/04 00:39:11;;;;;;;3.20;2.90;;;19.30;99.90;;;;;;5050360;28;20104;-65
2021/06/04 00:41:41;;;;;;;3.13;2.83;;;19.30;99.90;;;;;;5031657;28;20055;-65
2021/06/04 00:44:08;;;;;;;3.23;2.53;;;19.30;99.90;;;;;;5050659;28;20029;-65
2021/06/04 00:46:34;;;;;;;4.18;2.72;;;19.30;99.90;;;;;;5032265;28;20025;-65
2021/06/04 00:49:00;;;;;;;4.47;2.72;;;19.30;99.90;;;;;;5032468;28;20025;-65
2021/06/04 00:51:36;;;;;;;6.28;3.58;;;19.30;99.90;;;;;;5031640;28;20071;-65
2021/06/04 00:54:04;;;;;;;5.90;3.85;;;19.20;99.90;;;;;;5032558;28;20102;-65
2021/06/04 00:56:31;;;;;;;9.45;3.72;;;19.20;99.90;;;;;;5050038;28;20032;-65
2021/06/04 00:58:57;;;;;;;5.53;3.35;;;19.20;99.90;;;;;;5032558;28;20157;-65
2021/06/04 01:01:29;;;;;;;4.30;3.20;;;19.20;99.90;;;;;;5049902;28;20025;-65
2021/06/04 01:04:12;;;;;;;3.25;2.83;;;19.20;99.90;;;;;;5032349;28;20029;-65
2021/06/04 01:06:59;;;;;;;3.40;3.05;;;19.10;99.90;;;;;;5049723;28;20025;-65
2021/06/04 01:09:58;;;;;;;3.30;3.03;;;19.10;99.90;;;;;;5054876;28;20108;-65
2021/06/04 01:12:29;;;;;;;3.95;3.55;;;19.20;99.90;;;;;;5046869;28;20149;-65
2021/06/04 01:15:29;;;;;;;3.50;3.20;;;19.10;99.90;;;;;;5070343;28;20071;-65
2021/06/04 01:18:03;;;;;;;5.57;3.05;;;19.00;99.90;;;;;;5052291;28;20453;-64
2021/06/04 01:20:32;;;;;;;5.35;2.75;;;19.00;99.90;;;;;;5069411;28;20040;-64
2021/06/04 01:23:14;;;;;;;3.47;3.15;;;19.00;99.90;;;;;;5070069;28;20032;-64
2021/06/04 01:25:48;;;;;;;4.43;3.13;;;19.10;99.90;;;;;;5069280;28;20060;-63
2021/06/04 01:28:33;;;;;;;3.38;2.83;;;19.00;99.90;;;;;;5069926;28;20035;-64
2021/06/04 01:31:16;;;;;;;3.08;2.53;;;18.90;99.90;;;;;;5069973;28;20058;-64
2021/06/04 01:33:53;;;;;;;5.32;2.40;;;18.80;99.90;;;;;;5069206;28;20237;-64
2021/06/04 01:36:23;;;;;;;3.22;2.90;;;18.80;99.90;;;;;;5069972;28;20066;-63
2021/06/04 01:38:51;;;;;;;2.75;2.55;;;18.90;99.90;;;;;;5069753;28;20020;-64
2021/06/04 01:41:20;;;;;;;3.53;2.80;;;18.90;99.90;;;;;;5073859;28;20029;-64
2021/06/04 01:43:49;;;;;;;3.97;2.55;;;18.90;99.90;;;;;;5057517;28;20395;-63
2021/06/04 01:46:28;;;;;;;5.28;3.38;;;18.90;99.90;;;;;;5076608;28;20025;-65
2021/06/04 01:48:57;;;;;;;2.90;2.67;;;19.00;99.90;;;;;;5058466;28;20386;-64
2021/06/04 01:51:28;;;;;;;3.55;3.25;;;19.00;99.90;;;;;;5076230;28;20151;-64
2021/06/04 01:54:04;;;;;;;4.90;2.72;;;18.90;99.90;;;;;;5076375;28;20054;-63
2021/06/04 01:56:44;;;;;;;2.90;2.70;;;19.00;99.90;;;;;;5075542;28;20032;-64
2021/06/04 01:59:36;;;;;;;3.75;3.08;;;18.90;99.90;;;;;;5058414;28;20029;-64
2021/06/04 02:02:04;;;;;;;2.97;2.75;;;18.90;99.90;;;;;;5058461;28;20028;-64
2021/06/04 02:04:36;;;;;;;3.13;2.92;;;19.00;99.90;;;;;;5075893;28;20453;-64
2021/06/04 02:07:08;;;;;;;6.13;2.78;;;18.90;99.90;;;;;;5058119;28;20074;-64
2021/06/04 02:09:34;;;;;;;5.38;3.47;;;19.00;99.90;;;;;;5057880;28;20115;-65
2021/06/04 02:12:00;;;;;;;5.47;3.13;;;19.00;99.90;;;;;;5076166;28;20107;-65
2021/06/04 02:14:35;;;;;;;4.13;3.28;;;19.10;99.90;;;;;;5075612;28;20035;-67
2021/06/04 02:17:07;;;;;;;5.82;3.10;;;19.00;99.90;;;;;;5058192;28;20422;-64
2021/06/04 02:19:49;;;;;;;4.43;2.80;;;19.00;99.90;;;;;;5057685;28;20115;-64
2021/06/04 02:22:26;;;;;;;4.90;2.97;;;19.00;99.90;;;;;;5076713;28;20115;-64
2021/06/04 02:25:31;;;;;;;3.70;3.20;;;19.00;99.90;;;;;;5076372;28;20134;-63
2021/06/04 02:28:07;;;;;;;3.42;3.03;;;19.10;99.90;;;;;;5061523;28;20422;-65
2021/06/04 02:30:40;;;;;;;5.68;3.00;;;19.00;99.90;;;;;;5057873;28;20045;-64
2021/06/04 02:33:18;;;;;;;3.10;2.83;;;19.00;99.90;;;;;;5057932;28;20052;-64
2021/06/04 02:36:11;;;;;;;4.05;3.70;;;19.00;99.90;;;;;;5057297;28;20037;-65
2021/06/04 02:38:43;;;;;;;4.10;2.97;;;19.00;99.90;;;;;;5075438;28;20450;-64
2021/06/04 02:41:40;;;;;;;5.60;2.65;;;19.00;99.90;;;;;;5076153;28;20024;-65
2021/06/04 02:44:10;;;;;;;4.25;2.63;;;19.00;99.90;;;;;;5041860;28;20036;-65
2021/06/04 02:46:41;;;;;;;5.65;3.40;;;19.00;99.90;;;;;;5075448;28;20024;-65
2021/06/04 02:49:11;;;;;;;3.72;3.33;;;19.00;99.90;;;;;;5075845;28;20473;-65
2021/06/04 02:52:08;;;;;;;3.95;3.42;;;18.90;99.90;;;;;;5055517;28;20359;-64
2021/06/04 02:54:37;;;;;;;4.65;3.90;;;18.80;99.90;;;;;;5054182;28;20124;-64
2021/06/04 02:57:07;;;;;;;4.63;3.70;;;18.90;99.90;;;;;;5072568;28;20029;-65
2021/06/04 02:59:37;;;;;;;6.43;3.83;;;18.90;99.90;;;;;;5072050;28;20119;-65
2021/06/04 03:02:08;;;;;;;4.18;3.75;;;18.90;99.90;;;;;;5054400;28;20044;-65
2021/06/04 03:04:37;;;;;;;4.60;3.95;;;18.80;99.90;;;;;;5072097;28;20059;-65
2021/06/04 03:07:07;;;;;;;4.22;3.83;;;18.90;99.90;;;;;;5072571;28;20048;-65
2021/06/04 03:09:37;;;;;;;5.32;4.82;;;18.80;99.90;;;;;;5072023;28;20040;-65
2021/06/04 03:12:11;;;;;;;7.00;4.15;;;18.90;99.90;;;;;;5072311;28;20064;-66
2021/06/04 03:14:38;;;;;;;4.00;3.67;;;18.90;99.90;;;;;;5071745;28;20033;-65
2021/06/04 03:17:06;;;;;;;4.53;4.13;;;18.90;99.90;;;;;;5072530;28;20048;-64
2021/06/04 03:19:32;;;;;;;5.82;4.55;;;19.00;99.90;;;;;;5071803;28;20594;-65
2021/06/04 03:22:10;;;;;;;5.80;4.30;;;19.00;99.90;;;;;;5054267;28;20107;-64
2021/06/04 03:24:38;;;;;;;6.43;4.97;;;19.00;99.90;;;;;;5053686;28;20043;-65
2021/06/04 03:27:06;;;;;;;5.38;4.88;;;19.10;99.90;;;;;;5072219;28;20024;-64
2021/06/04 03:29:32;;;;;;;5.75;5.03;;;19.10;99.90;;;;;;5053439;28;20190;-65
2021/06/04 03:32:03;;;;;;;6.85;5.70;;;19.00;99.90;;;;;;5072211;28;20431;-65
2021/06/04 03:34:29;;;;;;;6.53;5.57;;;19.00;99.90;;;;;;5071880;28;20490;-65
2021/06/04 03:36:58;;;;;;;5.72;5.22;;;18.90;99.90;;;;;;5071806;28;20028;-65
2021/06/04 03:39:29;;;;;;;7.95;5.97;;;18.90;99.90;;;;;;5053875;28;20025;-65
2021/06/04 03:41:55;;;;;;;8.35;5.60;;;19.00;99.90;;;;;;5071372;28;20024;-63
2021/06/04 03:44:28;;;;;;;6.43;5.72;;;19.00;99.90;;;;;;5053936;28;20032;-64
2021/06/04 03:46:54;;;;;;;6.80;5.13;;;18.90;99.90;;;;;;5071226;28;20414;-64
2021/06/04 03:49:21;;;;;;;7.10;6.45;;;18.80;99.90;;;;;;5071999;28;20051;-64
2021/06/04 03:51:49;;;;;;;7.82;6.13;;;18.80;99.90;;;;;;5071064;28;20073;-65
2021/06/04 03:54:22;;;;;;;6.43;5.50;;;18.80;99.90;;;;;;5071523;28;20511;-64
2021/06/04 03:56:49;;;;;;;7.50;5.75;;;18.80;99.90;;;;;;5071350;28;20036;-64
2021/06/04 03:59:15;;;;;;;5.97;4.95;;;18.90;99.90;;;;;;5071090;28;20032;-64
2021/06/04 04:01:45;;;;;;;5.57;5.13;;;19.00;99.90;;;;;;5071152;28;20318;-64
2021/06/04 04:04:12;;;;;;;11.07;5.32;;;19.00;99.90;;;;;;5071317;28;20028;-65
2021/06/04 04:06:38;;;;;;;13.55;5.20;;;19.00;99.90;;;;;;5070798;28;20059;-65
2021/06/04 04:09:07;;;;;;;6.00;5.47;;;19.00;99.90;;;;;;5053673;28;20123;-65
2021/06/04 04:11:33;;;;;;;8.70;5.40;;;19.00;99.90;;;;;;5070608;28;20042;-68
2021/06/04 04:13:59;;;;;;;5.15;4.65;;;18.90;99.90;;;;;;5071198;28;20031;-63
2021/06/04 04:16:25;;;;;;;7.07;5.50;;;18.80;99.90;;;;;;5071605;28;20033;-64
2021/06/04 04:18:50;;;;;;;5.70;5.00;;;18.90;99.90;;;;;;5070353;28;20056;-64
2021/06/04 04:21:16;;;;;;;5.65;5.15;;;19.00;99.90;;;;;;5071783;28;20452;-64
2021/06/04 04:23:49;;;;;;;8.90;5.47;;;19.10;99.90;;;;;;5052660;28;20475;-64
2021/06/04 04:26:18;;;;;;;6.35;5.65;;;19.20;99.90;;;;;;5070995;28;20020;-64
2021/06/04 04:28:46;;;;;;;5.53;4.97;;;19.20;99.90;;;;;;5052490;28;20024;-64
2021/06/04 04:31:14;;;;;;;6.57;5.75;;;19.20;99.90;;;;;;5053113;28;20021;-64
2021/06/04 04:33:40;;;;;;;7.28;6.32;;;19.20;99.90;;;;;;5070191;28;20016;-64
2021/06/04 04:36:08;;;;;;;9.15;7.68;;;19.10;99.90;;;;;;5070849;28;20075;-64
2021/06/04 04:38:34;;;;;;;10.20;7.45;;;19.00;99.90;;;;;;5070198;28;20024;-76
2021/06/04 04:41:02;;;;;;;9.65;8.02;;;18.90;99.90;;;;;;5053015;28;20332;-64
2021/06/04 04:43:30;;;;;;;8.35;7.55;;;18.90;99.90;;;;;;5070734;28;20028;-63
2021/06/04 04:45:56;;;;;;;7.85;7.03;;;18.90;99.90;;;;;;5070280;28;20037;-64
2021/06/04 04:48:22;;;;;;;7.95;7.15;;;19.00;99.90;;;;;;5070769;28;20032;-63
2021/06/04 04:50:48;;;;;;;10.32;8.35;;;19.10;99.90;;;;;;5070134;28;20160;-64
2021/06/04 04:53:15;;;;;;;8.88;7.20;;;19.10;99.90;;;;;;5070305;28;20107;-65
2021/06/04 04:55:41;;;;;;;9.50;7.22;;;19.20;99.90;;;;;;5070255;28;20045;-64
2021/06/04 04:58:09;;;;;;;10.27;7.10;;;19.20;99.90;;;;;;5070781;28;20056;-64
2021/06/04 05:00:36;;;;;;;11.65;8.30;;;19.30;99.90;;;;;;5070220;28;20037;-81
2021/06/04 05:03:02;;;;;;;7.53;6.82;;;19.30;99.90;;;;;;5070390;28;20102;-64
2021/06/04 05:05:30;;;;;;;10.52;6.75;;;19.50;99.90;;;;;;5070358;28;20024;-64
2021/06/04 05:07:56;;;;;;;6.70;6.00;;;19.70;99.90;;;;;;5069463;28;20120;-64
2021/06/04 05:10:22;;;;;;;9.70;7.53;;;19.90;99.90;;;;;;5052497;28;20021;-64
2021/06/04 05:12:47;;;;;;;8.35;7.60;;;19.90;99.90;;;;;;5069648;28;20028;-63
2021/06/04 05:15:18;;;;;;;7.63;6.90;;;19.80;99.90;;;;;;5069955;28;20474;-63
2021/06/04 05:17:44;;;;;;;8.70;6.57;;;19.80;99.90;;;;;;5069828;28;20041;-64
2021/06/04 05:20:11;;;;;;;10.75;7.25;;;19.90;99.90;;;;;;5070052;28;20282;-65
2021/06/04 05:22:38;;;;;;;9.90;7.53;;;20.00;99.90;;;;;;5051558;28;20028;-66
2021/06/04 05:25:05;;;;;;;6.57;5.97;;;19.90;99.90;;;;;;5070256;28;20059;-64
2021/06/04 05:27:31;;;;;;;7.10;6.50;;;20.10;99.90;;;;;;5070161;28;20025;-63
2021/06/04 05:29:57;;;;;;;6.70;6.07;;;20.00;99.90;;;;;;5069554;28;20021;-64
2021/06/04 05:32:23;;;;;;;7.43;6.72;;;20.20;99.90;;;;;;5052183;28;20032;-64
2021/06/04 05:34:49;;;;;;;7.75;6.53;;;20.10;99.90;;;;;;5051414;28;20114;-64
2021/06/04 05:37:15;;;;;;;7.85;6.97;;;20.20;99.90;;;;;;5069880;28;20037;-63
2021/06/04 05:39:42;;;;;;;8.25;7.18;;;20.20;99.90;;;;;;5069191;28;20086;-64
2021/06/04 05:42:08;;;;;;;8.38;6.88;;;20.20;99.90;;;;;;5069994;28;20165;-64
2021/06/04 05:44:37;;;;;;;7.78;7.07;;;20.30;99.90;;;;;;5070001;28;20427;-65
2021/06/04 05:47:07;;;;;;;7.53;6.82;;;20.40;99.90;;;;;;5070331;28;20426;-64
2021/06/04 05:49:33;;;;;;;7.57;6.87;;;20.40;99.90;;;;;;5052159;28;20542;-64
2021/06/04 05:52:07;;;;;;;8.77;7.88;;;20.40;99.90;;;;;;5050921;28;20087;-64
2021/06/04 05:54:33;;;;;;;8.57;7.22;;;20.30;99.90;;;;;;5052076;28;20033;-65
2021/06/04 05:56:59;;;;;;;8.38;6.75;;;20.40;99.90;;;;;;5069297;28;20364;-63
2021/06/04 05:59:24;;;;;;;7.20;6.60;;;20.50;99.90;;;;;;5069750;28;20079;-63
2021/06/04 06:01:50;;;;;;;8.38;6.45;;;20.50;99.90;;;;;;5068958;28;20031;-64
2021/06/04 06:04:16;;;;;;;6.78;6.07;;;20.60;99.90;;;;;;5051437;28;20028;-64
2021/06/04 06:06:42;;;;;;;11.45;6.28;;;20.70;99.90;;;;;;5050990;28;20431;-64
2021/06/04 06:09:08;;;;;;;8.45;6.63;;;20.70;99.90;;;;;;5051206;28;20039;-65
2021/06/04 06:11:35;;;;;;;7.82;6.45;;;20.80;99.90;;;;;;5069123;28;20021;-64
2021/06/04 06:14:01;;;;;;;6.63;6.03;;;20.80;99.90;;;;;;5068671;28;20479;-64
2021/06/04 06:16:29;;;;;;;8.70;6.78;;;20.80;99.90;;;;;;5051353;28;20522;-64
2021/06/04 06:18:55;;;;;;;8.07;7.30;;;20.80;99.90;;;;;;5068689;28;20089;-65
2021/06/04 06:21:21;;;;;;;7.95;6.30;;;20.80;99.90;;;;;;5050967;28;20382;-65
2021/06/04 06:23:47;;;;;;;8.23;6.78;;;20.80;99.90;;;;;;5050372;28;20046;-64
2021/06/04 06:26:19;;;;;;;10.02;7.57;;;20.90;99.90;;;;;;5051343;28;20032;-65
2021/06/04 06:28:45;;;;;;;9.23;6.90;;;20.90;99.90;;;;;;5072584;28;20032;-65
2021/06/04 06:31:14;;;;;;;8.02;7.03;;;20.90;99.90;;;;;;5072798;28;20138;-65
2021/06/04 06:33:40;;;;;;;7.00;6.20;;;20.90;99.90;;;;;;5072963;28;20385;-64
2021/06/04 06:36:09;;;;;;;7.90;5.82;;;20.80;99.90;;;;;;5054751;28;20127;-64
2021/06/04 06:38:35;;;;;;;8.82;6.57;;;20.90;99.90;;;;;;5072689;28;20028;-64
2021/06/04 06:41:04;;;;;;;6.72;6.07;;;20.80;99.90;;;;;;5054285;28;20024;-64
2021/06/04 06:43:32;;;;;;;8.60;6.57;;;20.80;99.90;;;;;;5072837;28;20063;-65
2021/06/04 06:45:58;;;;;;;6.88;6.03;;;20.90;99.90;;;;;;5072399;28;20036;-64
2021/06/04 06:48:25;;;;;;;6.05;5.50;;;21.00;99.90;;;;;;5072804;28;20024;-64
2021/06/04 06:50:51;;;;;;;7.20;6.18;;;21.00;99.90;;;;;;5072118;28;20079;-65
2021/06/04 06:53:18;;;;;;;13.52;6.10;;;21.10;99.90;;;;;;5072827;28;20047;-64
2021/06/04 06:55:45;;;;;;;13.25;6.53;;;21.10;99.90;;;;;;5053153;28;20028;-64
2021/06/04 06:58:12;;;;;;;9.23;8.43;;;21.10;99.90;;;;;;5054849;28;20066;-63
2021/06/04 07:00:42;;;;;;;7.65;6.38;;;21.20;99.90;;;;;;5072820;28;20419;-64
2021/06/04 07:03:09;;;;;;;7.65;6.95;;;21.10;99.90;;;;;;5054430;28;20032;-65
2021/06/04 07:05:36;;;;;;;7.47;6.75;;;21.20;99.90;;;;;;5072115;28;20029;-64
2021/06/04 07:08:04;;;;;;;7.22;5.07;;;21.20;99.90;;;;;;5053800;28;20213;-64
2021/06/04 07:10:30;;;;;;;5.45;5.03;;;21.20;99.90;;;;;;5072459;28;20033;-64
2021/06/04 07:12:58;;;;;;;5.53;5.03;;;21.30;99.90;;;;;;5071397;28;20135;-64
2021/06/04 07:15:30;;;;;;;5.72;5.13;;;21.30;99.90;;;;;;5053714;28;20036;-64
2021/06/04 07:17:58;;;;;;;8.45;5.85;;;21.50;99.90;;;;;;5072039;28;20040;-64
2021/06/04 07:20:29;;;;;;;7.47;5.25;;;21.20;99.90;;;;;;5072261;28;20090;-65
2021/06/04 07:22:57;;;;;;;5.85;5.32;;;20.80;99.90;;;;;;5053484;28;20127;-64
2021/06/04 07:25:30;;;;;;;6.18;5.57;;;20.70;99.90;;;;;;5072324;28;20036;-64
2021/06/04 07:27:55;;;;;;;6.75;4.95;;;21.10;99.90;;;;;;5053442;28;20024;-65
2021/06/04 07:30:27;;;;;;;10.68;6.07;;;21.40;99.90;;;;;;5053626;28;20123;-65
2021/06/04 07:32:56;;;;;;;5.22;4.82;;;21.50;99.90;;;;;;5053325;28;20029;-65
2021/06/04 07:35:24;;;;;;;12.50;5.00;;;21.70;99.90;;;;;;5071650;28;20414;-65
2021/06/04 07:37:50;;;;;;;6.68;3.97;;;21.90;99.90;;;;;;5052671;28;20036;-64
2021/06/04 07:40:20;;;;;;;5.63;3.85;;;22.20;99.90;;;;;;5071437;28;20445;-64
2021/06/04 07:42:47;;;;;;;8.52;4.88;;;22.40;99.90;;;;;;5053316;28;20035;-66
2021/06/04 07:45:14;;;;;;;8.38;4.35;;;22.30;99.90;;;;;;5053349;28;20032;-64
2021/06/04 07:47:39;;;;;;;4.25;3.85;;;22.50;99.90;;;;;;5071806;28;20035;-64
2021/06/04 07:50:10;;;;;;;6.68;3.92;;;22.60;99.90;;;;;;5053064;28;20025;-63
2021/06/04 07:52:37;;;;;;;4.20;3.17;;;22.60;99.90;;;;;;5071086;28;20126;-64
2021/06/04 07:55:06;;;;;;;6.50;3.60;;;22.70;99.90;;;;;;5052328;28;20036;-64
2021/06/04 07:57:32;;;;;;;3.70;3.40;;;22.90;99.90;;;;;;5053340;28;20120;-64
2021/06/04 07:59:57;;;;;;;3.85;3.55;;;22.60;99.90;;;;;;5070501;28;20082;-64
2021/06/04 08:02:23;;;;;;;5.13;4.43;;;22.90;99.90;;;;;;5071343;28;20035;-64
2021/06/04 08:04:51;;;;;;;5.40;3.03;;;23.10;99.90;;;;;;5070360;28;20079;-64
2021/06/04 08:07:17;;;;;;;4.28;3.28;;;22.70;99.90;;;;;;5070939;28;20108;-65
2021/06/04 08:09:43;;;;;;;5.28;3.97;;;22.70;99.90;;;;;;5052590;28;20060;-65
2021/06/04 08:12:12;;;;;;;5.72;4.03;;;22.70;99.90;;;;;;5069757;28;20025;-64
2021/06/04 08:14:39;;;;;;;5.32;3.67;;;22.90;99.90;;;;;;5052221;28;20033;-65
2021/06/04 08:17:06;;;;;;;4.63;3.28;;;23.20;99.90;;;;;;5069408;28;20158;-65
2021/06/04 08:19:33;;;;;;;2.97;2.67;;;23.50;99.90;;;;;;5069985;28;20425;-65
2021/06/04 08:22:00;;;;;;;4.45;3.25;;;23.70;99.90;;;;;;5069589;28;20468;-65
2021/06/04 08:24:30;;;;;;;3.67;3.38;;;24.00;99.90;;;;;;5069467;28;20025;-65
2021/06/04 08:26:57;;;;;;;3.20;2.90;;;24.30;99.90;;;;;;5069585;28;20162;-66
2021/06/04 08:29:25;;;;;;;5.97;3.53;;;24.30;99.90;;;;;;5069895;28;20028;-66
2021/06/04 08:31:51;;;;;;;4.45;3.60;;;24.40;99.90;;;;;;5069183;28;20044;-66
2021/06/04 08:34:17;;;;;;;3.53;2.58;;;24.50;99.90;;;;;;5051356;28;20029;-65
2021/06/04 08:36:44;;;;;;;2.75;2.22;;;24.50;99.90;;;;;;5051514;28;20033;-65
2021/06/04 08:39:16;;;;;;;4.80;2.95;;;24.50;99.90;;;;;;5050754;28;20024;-66
2021/06/04 08:42:11;;;;;;;4.68;3.33;;;24.90;99.90;;;;;;5051632;28;20134;-65
2021/06/04 08:44:49;;;;;;;4.40;2.70;;;25.00;99.90;;;;;;5051338;28;20075;-66
2021/06/04 08:47:25;;;;;;;4.32;2.88;;;25.20;99.90;;;;;;5069792;28;20108;-65
2021/06/04 08:50:00;;;;;;;4.75;2.17;;;25.30;99.90;;;;;;5049962;28;20044;-67
2021/06/04 08:52:37;;;;;;;2.60;1.90;;;25.20;99.90;;;;;;5069274;28;20064;-67
2021/06/04 08:55:27;;;;;;;2.83;2.40;;;25.40;99.90;;;;;;5050817;28;20119;-67
2021/06/04 08:58:17;;;;;;;6.25;2.45;;;25.70;99.90;;;;;;5068408;28;20028;-66
2021/06/04 09:00:59;;;;;;;3.60;1.98;;;25.90;99.90;;;;;;5058030;28;20201;-67
2021/06/04 09:04:06;;;;;;;2.38;1.70;;;26.10;99.90;;;;;;5051155;28;20100;-66
2021/06/04 09:06:40;;;;;;;2.63;2.15;;;26.20;99.90;;;;;;5036950;28;20467;-66
2021/06/04 09:09:24;;;;;;;1.60;1.50;;;26.30;99.90;;;;;;5068106;28;20101;-67
2021/06/04 09:11:57;;;;;;;3.78;2.25;;;26.50;99.90;;;;;;5068438;28;20021;-82
2021/06/04 09:14:24;;;;;;;3.83;2.47;;;26.40;99.90;;;;;;5068805;28;20442;-68
2021/06/04 09:16:59;;;;;;;6.47;2.28;;;26.50;99.90;;;;;;5050964;28;20028;-80
2021/06/04 09:19:27;;;;;;;3.97;2.85;;;26.60;99.90;;;;;;5069399;28;20120;-67
2021/06/04 09:21:54;;;;;;;3.55;2.80;;;26.50;99.90;;;;;;5069004;28;20427;-67
2021/06/04 09:24:40;;;;;;;2.38;2.17;;;26.40;99.90;;;;;;5069636;28;20029;-70
2021/06/04 09:27:21;;;;;;;3.35;2.55;;;26.50;99.90;;;;;;5051163;28;20032;-68
2021/06/04 09:30:11;;;;;;;4.70;2.35;;;26.60;99.90;;;;;;5069420;28;20031;-67
2021/06/04 09:32:38;;;;;;;5.05;2.65;;;26.60;99.60;;;;;;5051069;28;20087;-67
2021/06/04 09:35:18;;;;;;;2.72;2.50;;;26.50;99.50;;;;;;5068729;28;20097;-67
2021/06/04 09:37:45;;;;;;;3.47;3.03;;;26.60;99.20;;;;;;5051328;28;20034;-67
2021/06/04 09:40:27;;;;;;;3.58;2.10;;;26.70;98.90;;;;;;5050768;28;20385;-67
2021/06/04 09:43:01;;;;;;;5.70;2.25;;;26.90;98.60;;;;;;5050356;28;20027;-74
2021/06/04 09:45:32;;;;;;;4.30;2.78;;;26.90;98.40;;;;;;5050983;28;20050;-67
2021/06/04 09:48:09;;;;;;;10.38;3.30;;;27.30;99.00;;;;;;5068696;28;20431;-67
2021/06/04 09:50:45;;;;;;;5.95;3.03;;;27.60;98.40;;;;;;5068500;28;20064;-68
2021/06/04 09:53:19;;;;;;;4.03;2.70;;;27.80;97.60;;;;;;5068817;28;20399;-67
2021/06/04 09:55:48;;;;;;;5.30;2.20;;;27.50;97.30;;;;;;5051086;28;20123;-68
2021/06/04 09:58:13;;;;;;;3.60;2.92;;;27.40;96.80;;;;;;5068318;28;20032;-68
2021/06/04 10:00:54;;;;;;;25.67;2.90;;;27.10;97.30;;;;;;5050626;28;20044;-67
2021/06/04 10:03:22;;;;;;;;;;;27.10;97.30;;;;;;5073545;28;20025;-67
2021/06/04 10:05:52;;;;;;;10.88;2.10;;;27.10;97.20;;;;;;5072593;28;19904;-67
2021/06/04 10:08:18;;;;;;;3.13;2.28;;;26.70;96.90;;;;;;5071744;28;20482;-66
2021/06/04 10:10:44;;;;;;;5.70;2.42;;;26.60;97.00;;;;;;5054104;28;20048;-66
2021/06/04 10:13:33;;;;;;;3.75;3.28;;;26.40;97.40;;;;;;5053618;28;20047;-67
2021/06/04 10:16:02;;;;;;;4.60;3.03;;;26.40;98.10;;;;;;5071849;28;20031;-67
2021/06/04 10:18:37;;;;;;;4.68;2.40;;;26.60;98.50;;;;;;5072544;28;20027;-67
2021/06/04 10:21:25;;;;;;;3.90;2.92;;;26.90;98.20;;;;;;5053496;28;20350;-67
2021/06/04 10:23:54;;;;;;;4.43;2.70;;;27.10;97.60;;;;;;5072457;28;20134;-67
2021/06/04 10:26:32;;;;;;;4.57;3.17;;;27.50;97.80;;;;;;5072467;28;20170;-68
2021/06/04 10:29:16;;;;;;;4.63;3.65;;;27.90;97.80;;;;;;5071731;28;20024;-67
2021/06/04 10:32:26;;;;;;;7.40;3.05;;;28.00;97.10;;;;;;5053720;28;20063;-67
2021/06/04 10:35:18;;;;;;;2.05;1.33;;;27.90;95.10;;;;;;5049904;28;20041;-67
2021/06/04 10:38:12;;;;;;;2.47;1.60;;;27.40;94.10;;;;;;5072730;28;20411;-67
2021/06/04 10:40:55;;;;;;;2.15;1.77;;;27.30;95.00;;;;;;5072626;28;20103;-68
2021/06/04 10:43:51;;;;;;;4.88;3.10;;;27.50;94.50;;;;;;5054251;28;20040;-67
2021/06/04 10:46:28;;;;;;;3.85;2.60;;;27.90;95.20;;;;;;5071171;28;20386;-67
2021/06/04 10:49:10;;;;;;;4.65;3.55;;;28.30;94.40;;;;;;5054417;28;20470;-66
2021/06/04 10:51:58;;;;;;;3.17;1.98;;;28.80;94.70;;;;;;5071900;28;20076;-66
2021/06/04 10:54:41;;;;;;;3.10;1.70;;;29.10;93.20;;;;;;5071460;28;20036;-66
2021/06/04 10:57:17;;;;;;;3.03;1.33;;;29.30;92.60;;;;;;5053516;28;20135;-66
2021/06/04 10:59:57;;;;;;;3.35;2.80;;;29.30;91.90;;;;;;5053254;28;20033;-67
2021/06/04 11:02:29;;;;;;;3.30;2.03;;;29.60;92.80;;;;;;5053290;28;20123;-68
2021/06/04 11:05:00;;;;;;;3.42;1.98;;;29.80;93.00;;;;;;5053497;28;20275;-66
2021/06/04 11:07:32;;;;;;;10.75;2.40;;;30.00;92.50;;;;;;5053187;28;20029;-67
2021/06/04 11:10:10;;;;;;;3.00;2.67;;;30.30;92.50;;;;;;5052717;28;20040;-70
2021/06/04 11:12:44;;;;;;;4.47;2.38;;;30.40;92.20;;;;;;5071003;28;20024;-67
2021/06/04 11:15:24;;;;;;;4.07;1.65;;;30.40;91.70;;;;;;5052511;28;20121;-67
2021/06/04 11:18:10;;;;;;;3.47;2.60;;;30.40;91.20;;;;;;5071540;28;20153;-67
2021/06/04 11:20:46;;;;;;;4.60;2.35;;;30.50;91.50;;;;;;5053093;28;20036;-67
2021/06/04 11:23:39;;;;;;;3.97;2.15;;;30.60;90.90;;;;;;5052472;28;20055;-67
2021/06/04 11:26:13;;;;;;;7.38;2.40;;;30.80;90.40;;;;;;5012121;28;20343;-68
2021/06/04 11:28:48;;;;;;;5.63;4.35;;;30.80;90.40;;;;;;5053046;28;20024;-67
2021/06/04 11:31:32;;;;;;;2.53;2.03;;;31.00;90.70;;;;;;5070576;28;20132;-68
2021/06/04 11:34:03;;;;;;;7.53;4.13;;;31.00;87.60;;;;;;5070489;28;20032;-78
2021/06/04 11:36:30;;;;;;;;;;;31.00;89.00;;;;;;5052763;28;20130;-68
2021/06/04 11:39:06;;;;;;;7.40;4.40;;;31.40;88.90;;;;;;5052593;28;19912;-67
2021/06/04 11:41:48;;;;;;;5.85;5.18;;;31.60;89.20;;;;;;5071497;28;20125;-67
2021/06/04 11:44:34;;;;;;;3.25;2.03;;;31.40;88.40;;;;;;5070642;28;20059;-68
2021/06/04 11:47:27;;;;;;;5.10;4.30;;;31.10;87.60;;;;;;5070854;28;20075;-74
2021/06/04 11:49:53;;;;;;;2.35;2.15;;;31.00;88.50;;;;;;5062980;28;20085;-68
2021/06/04 11:52:36;;;;;;;2.70;1.90;;;30.50;86.90;;;;;;5051765;28;20241;-68
2021/06/04 11:55:26;;;;;;;4.32;3.92;;;30.10;88.10;;;;;;5070121;28;20078;-69
2021/06/04 11:58:01;;;;;;;4.30;2.42;;;30.50;89.60;;;;;;5071032;28;20098;-67
2021/06/04 12:00:43;;;;;;;4.25;2.60;;;30.60;86.70;;;;;;5052848;28;20128;-69
2021/06/04 12:03:09;;;;;;;3.17;2.10;;;30.70;86.40;;;;;;5052341;28;20028;-67
2021/06/04 12:05:35;;;;;;;6.88;2.28;;;30.80;85.00;;;;;;5052524;28;20035;-67
2021/06/04 12:08:20;;;;;;;4.95;2.25;;;30.30;84.80;;;;;;5069922;28;20024;-77
2021/06/04 12:10:49;;;;;;;3.83;2.30;;;29.70;86.30;;;;;;5052597;28;20020;-68
2021/06/04 12:13:52;;;;;;;2.25;2.05;;;29.50;87.00;;;;;;5070232;28;20024;-67
2021/06/04 12:18:51;;;;;;;6.50;2.90;;;29.80;87.60;;;;;;5070564;28;20028;-69
2021/06/04 12:21:39;;;;;;;6.15;3.47;;;29.90;88.20;;;;;;5051020;28;20115;-67
2021/06/04 12:24:35;;;;;;;4.63;2.67;;;29.60;87.50;;;;;;5050919;28;20085;-68
2021/06/04 12:27:13;;;;;;;4.53;2.33;;;29.20;88.60;;;;;;5051421;28;20476;-68
2021/06/04 12:29:43;;;;;;;2.67;1.83;;;28.70;87.60;;;;;;5070372;28;20051;-68
2021/06/04 12:32:16;;;;;;;5.00;2.90;;;28.30;89.40;;;;;;5069858;28;20438;-69
2021/06/04 12:34:41;;;;;;;3.10;2.22;;;27.90;90.00;;;;;;5051890;28;20036;-70
2021/06/04 12:37:18;;;;;;;4.63;2.97;;;27.60;90.20;;;;;;5069151;28;20149;-67
2021/06/04 12:40:01;;;;;;;4.18;3.13;;;27.70;90.30;;;;;;5069644;28;20032;-69
2021/06/04 12:42:30;;;;;;;5.47;2.60;;;27.60;90.60;;;;;;5069245;28;20048;-68
2021/06/04 12:44:58;;;;;;;3.33;2.22;;;27.50;90.70;;;;;;5069848;28;20032;-67
2021/06/04 12:47:31;;;;;;;9.32;2.75;;;27.50;90.70;;;;;;5069483;28;20112;-68
2021/06/04 12:50:08;;;;;;;3.67;2.53;;;27.40;90.70;;;;;;5070008;28;20028;-68
2021/06/04 12:52:34;;;;;;;4.43;3.03;;;27.30;91.40;;;;;;5051801;28;20057;-68
2021/06/04 12:55:28;;;;;;;3.63;2.80;;;27.20;92.80;;;;;;5070321;28;20029;-64
2021/06/04 12:57:53;;;;;;;4.38;3.58;;;27.20;94.80;;;;;;5052219;28;20123;-65
2021/06/04 13:00:31;;;;;;;3.85;3.40;;;26.90;96.70;;;;;;5050842;28;20419;-67
2021/06/04 13:03:07;;;;;;;4.15;2.88;;;26.70;97.70;;;;;;5051994;28;20020;-67
2021/06/04 13:05:35;;;;;;;4.88;3.33;;;26.70;95.40;;;;;;5051820;28;20074;-66
2021/06/04 13:08:09;;;;;;;5.32;4.20;;;26.40;96.00;;;;;;5051588;28;20539;-66
2021/06/04 13:10:46;;;;;;;8.15;6.22;;;26.60;97.00;;;;;;5051762;28;20025;-67
2021/06/04 13:13:20;;;;;;;12.98;6.90;;;26.80;98.60;;;;;;5069014;28;20056;-66
2021/06/04 13:15:46;;;;;;;8.20;5.85;;;27.00;99.60;;;;;;5051643;28;20059;-69